Portada
METAR-TAF:

METAR-TAF

Aeropuertos :

Aeropuerto de Chitá-Kadala

Chitá, Rusia

latitud: 52-05N, longitud: 113-29E, altitud: 685 m

Observación

El informe se hizo hace 10 horas y 49 minutos, a las 05:00 UTC
Viento 4 kt con dirección variable
Temperatura 24°C
Humedad 47%
Presión 1009 hPa
Visibilidad 10 km o más

METAR: UIAA 210500Z VRB02MPS 9999 NSC 24/12 Q1009 R29/70D NOSIG RMK QFE699/0932

Hora: 00:49 (15:49 UTC)

Pronóstico

El informe se hizo hace 10 horas y 49 minutos, a las 05:00 UTC
Pronóstico válido del 21 a las 06 UTC al 22 a las 06 UTC
Viento 6 kt del este
Visibilidad 10 km o más

TAF: UIAA 210500Z 2106/2206 08003MPS 9999 NSC

Observaciones y pronósticos meteorológicos de más de 4000 aeropuertos (mensajes METAR y TAF).

Los puntos amarillos y rojos representan las estaciones disponibles.

Ponga el ratón en el punto deseado para ver el nombre de la estación.

Haga clic para ver las observaciones y los pronósticos meteorológicos.

Para cambiar el mapa : haga clic en los botones verdes con una cruz de color negro para hacer un zoom, en el botón verde con un guión para alejar o en las flechas verdes para mapas adyacentes.


METAR-TAF: